Airfield :
LOGIN :

Register | Disclaimer

   EN    FR    IT 

 










Legend :    VFR   Marginal VFR   IFR   Intensive IFR   Very Intensive IFR
Visi :
Ceiling :
>= 8 km
>= 3000ft
5 to 8 km
1000 to 3000 ft
1500m to 5 km
500 to 1000 ft
800 to 1500m
200 to 500 ft
< 800m
< 200 ft
Symbols :   Thunderstorms  Fog  Heavy snow  Heavy precipitations  Wind > 20 kt
SIGMETs :     Misc.  Thunderstorms  Icing  Turbulence  Mountain Waves  Volcanic Ashes







- Airport Elevation : 1115 ft
- IATA code : GRZ


LOWG - Graz

CURRENT METAR :
  • 220220Z AUTO VRB01KT 9999 NSC 05/04 Q1015

EXPIRED METARs :
  • 220150Z AUTO VRB01KT 9999 NSC 06/04 Q1016
  • 220120Z AUTO VRB01KT 9999 NSC 07/04 Q1016
  • 220050Z AUTO VRB01KT 9999 NSC 07/04 Q1016
  • 220020Z AUTO VRB01KT 9999 NSC 07/04 Q1017

TAF TAF LOWG
Valid from the 22 at 00:00 until the 23 at 00:00 UTC


212315Z 2200/2224 VRB02KT CAVOK TX21/2213Z TN05/2204Z
TEMPO 2211/2217 16008KT
No reported NOTAMs for that airfield.



MET'MAP, your aeronautical weather chart ! - Copyright ORBIFLY December 2007 - Disclaimer

ORBIFLY MET'MAP TEAM :

Programming & Development : Alexandra Zaïnal
Concept & Development : Baudouin d'Aumeries
Co-Development & Prog : Marc-Olivier Méhu
Technical & hardware support : Manuel Goepfert

Contact : metmap@orbifly.com




SOURCES & CREDITS :

   NOAA